createdAt,value
2022-09-21T00:11:42.886Z,5.13
2022-09-21T00:26:44.778Z,5.13
2022-09-21T00:41:46.176Z,5.15
2022-09-21T00:56:46.255Z,4.89
2022-09-21T01:11:47.660Z,5.12
2022-09-21T01:26:47.880Z,5.13
2022-09-21T01:41:49.653Z,5.13
2022-09-21T01:56:49.841Z,4.88
2022-09-21T02:11:51.233Z,4.67
2022-09-21T02:26:51.320Z,4.37
2022-09-21T02:41:53.209Z,4.24
2022-09-21T02:56:53.399Z,4.29
2022-09-21T03:11:53.560Z,4.47
2022-09-21T03:26:54.818Z,4.36
2022-09-21T03:41:57.006Z,4.20
2022-09-21T03:56:58.515Z,4.14
2022-09-21T04:11:59.287Z,4.08
2022-09-21T04:27:00.368Z,3.98
2022-09-21T04:42:02.675Z,3.96
2022-09-21T04:57:04.233Z,4.27
2022-09-21T05:12:05.640Z,4.42
2022-09-21T05:27:05.741Z,4.54
2022-09-21T05:42:07.132Z,4.54
2022-09-21T05:57:07.819Z,5.00
2022-09-21T06:12:10.112Z,6.01
2022-09-21T06:27:11.317Z,7.03
2022-09-21T06:42:13.629Z,7.86
2022-09-21T06:57:13.716Z,8.28
2022-09-21T07:12:15.294Z,8.95
2022-09-21T07:27:16.283Z,9.21
2022-09-21T07:42:16.675Z,9.71
2022-09-21T07:57:16.978Z,10.52
2022-09-21T08:12:19.031Z,11.25
2022-09-21T08:27:20.071Z,12.57
2022-09-21T08:42:20.201Z,15.09
2022-09-21T08:57:20.864Z,16.35
2022-09-21T09:12:22.045Z,17.34
2022-09-21T09:27:22.143Z,18.26
2022-09-21T09:42:23.401Z,19.16
2022-09-21T09:57:24.831Z,19.46
2022-09-21T10:12:26.276Z,18.95
2022-09-21T10:27:27.538Z,19.23
2022-09-21T10:43:04.606Z,18.63
2022-09-21T10:58:08.140Z,19.84
2022-09-21T11:13:08.228Z,18.70
2022-09-21T11:28:07.983Z,17.49
2022-09-21T11:43:10.004Z,18.32
2022-09-21T11:58:11.023Z,19.84
2022-09-21T12:13:13.379Z,20.85
2022-09-21T12:28:15.779Z,18.84
2022-09-21T12:43:18.003Z,19.71
2022-09-21T12:58:55.498Z,19.69
2022-09-21T13:13:57.757Z,20.02
2022-09-21T13:28:59.100Z,19.00
2022-09-21T13:44:02.646Z,18.45
2022-09-21T14:06:08.931Z,20.35
2022-09-21T14:21:09.916Z,20.61
2022-09-21T14:36:11.329Z,20.87
2022-09-21T14:51:12.796Z,20.05
2022-09-21T15:06:14.649Z,19.54
2022-09-21T15:21:16.558Z,18.50
2022-09-21T15:36:16.689Z,17.68
2022-09-21T15:51:16.838Z,16.83
2022-09-21T16:06:17.446Z,16.43
2022-09-21T16:21:17.526Z,15.69
2022-09-21T16:49:57.353Z,15.29
2022-09-21T17:04:58.692Z,14.57
2022-09-21T17:20:00.135Z,13.17
2022-09-21T17:35:01.447Z,12.29
2022-09-21T17:50:03.413Z,11.51
2022-09-21T18:05:04.380Z,10.73
2022-09-21T18:20:05.293Z,10.26
2022-09-21T18:35:06.626Z,9.66
2022-09-21T18:50:07.381Z,9.33
2022-09-21T19:05:08.802Z,8.71
2022-09-21T19:20:10.349Z,8.37
2022-09-21T19:35:11.699Z,8.22
2022-09-21T19:50:15.000Z,7.74
2022-09-21T20:05:16.358Z,7.58
2022-09-21T20:20:16.473Z,7.20
2022-09-21T20:35:18.512Z,6.97
2022-09-21T20:50:18.488Z,6.71
2022-09-21T21:05:20.342Z,6.44
2022-09-21T21:20:22.228Z,6.41
2022-09-21T21:35:31.647Z,6.34
2022-09-21T21:50:33.015Z,6.40
2022-09-21T22:05:34.361Z,6.59
2022-09-21T22:20:36.218Z,6.76
2022-09-21T22:35:37.591Z,6.94
2022-09-21T22:50:38.594Z,6.84
2022-09-21T23:05:39.061Z,6.54
2022-09-21T23:20:40.704Z,6.38
2022-09-21T23:35:41.390Z,5.99
2022-09-21T23:50:43.830Z,5.76
